createdAt,value
2023-02-09T00:01:50.086Z,103114.97
2023-02-09T00:07:11.870Z,103112.13
2023-02-09T00:12:51.840Z,103103.50
2023-02-09T00:18:13.557Z,103110.31
2023-02-09T00:23:37.946Z,103105.16
2023-02-09T00:28:59.919Z,103110.50
2023-02-09T00:34:21.649Z,103103.06
2023-02-09T00:39:43.503Z,103115.19
2023-02-09T00:45:05.826Z,103117.13
2023-02-09T00:50:29.127Z,103112.78
2023-02-09T00:55:51.348Z,103126.41
2023-02-09T01:01:13.702Z,103127.63
2023-02-09T01:06:35.541Z,103129.91
2023-02-09T01:11:57.572Z,103128.41
2023-02-09T01:17:20.209Z,103122.38
2023-02-09T01:22:42.203Z,103127.47
2023-02-09T01:28:03.911Z,103130.56
2023-02-09T01:33:25.682Z,103127.31
2023-02-09T01:38:47.783Z,103124.94
2023-02-09T01:44:12.292Z,103113.16
2023-02-09T01:49:34.118Z,103106.28
2023-02-09T01:55:04.427Z,103113.06
2023-02-09T02:00:26.458Z,103108.78
2023-02-09T02:05:53.761Z,103100.84
2023-02-09T02:11:16.613Z,103101.88
2023-02-09T02:17:07.309Z,103097.75
2023-02-09T02:23:06.450Z,103097.13
2023-02-09T02:28:45.740Z,103094.72
2023-02-09T02:34:15.594Z,103079.53
2023-02-09T02:39:44.990Z,103076.06
2023-02-09T02:45:20.013Z,103071.78
2023-02-09T02:50:48.811Z,103072.16
2023-02-09T02:56:21.035Z,103072.34
2023-02-09T03:01:50.088Z,103061.66
2023-02-09T03:07:11.805Z,103062.69
2023-02-09T03:12:49.822Z,103058.03
2023-02-09T03:18:43.733Z,103069.47
2023-02-09T03:24:18.045Z,103068.13
2023-02-09T03:29:44.087Z,103051.91
2023-02-09T03:35:08.517Z,103049.31
2023-02-09T03:40:30.238Z,103052.28
2023-02-09T03:45:52.255Z,103044.16
2023-02-09T03:51:14.449Z,103049.03
2023-02-09T03:56:37.743Z,103035.56
2023-02-09T04:01:59.565Z,103033.84
2023-02-09T04:07:21.258Z,103035.94
2023-02-09T04:12:43.002Z,103025.06
2023-02-09T04:18:04.748Z,103010.34
2023-02-09T04:23:26.516Z,103006.06
2023-02-09T04:28:48.328Z,103005.59
2023-02-09T04:34:10.093Z,103006.63
2023-02-09T04:39:32.088Z,102977.41
2023-02-09T04:44:53.781Z,102989.50
2023-02-09T04:50:15.625Z,102994.53
2023-02-09T04:55:41.394Z,102995.63
2023-02-09T05:01:04.660Z,102991.13
2023-02-09T05:06:26.463Z,103015.16
2023-02-09T05:11:48.261Z,103010.88
2023-02-09T05:17:09.957Z,103028.50
2023-02-09T05:22:31.621Z,103016.75
2023-02-09T05:27:53.349Z,103011.22
2023-02-09T05:33:15.058Z,103006.06
2023-02-09T05:38:37.035Z,103035.84
2023-02-09T05:43:58.835Z,103046.25
2023-02-09T05:49:20.582Z,103053.84
2023-02-09T05:54:42.608Z,103049.38
2023-02-09T06:00:06.225Z,103038.31
2023-02-09T06:05:28.294Z,103022.75
2023-02-09T06:10:49.953Z,103012.91
2023-02-09T06:16:11.777Z,103014.81
2023-02-09T06:21:33.689Z,103010.63
2023-02-09T06:26:56.493Z,103008.16
2023-02-09T06:32:18.474Z,103018.56
2023-02-09T06:37:40.266Z,103049.16
2023-02-09T06:43:02.118Z,103051.56
2023-02-09T06:48:23.934Z,103043.44
2023-02-09T06:53:46.105Z,103051.31
2023-02-09T06:59:07.840Z,103062.47
2023-02-09T07:04:29.588Z,103082.34
2023-02-09T07:09:51.329Z,103094.47
2023-02-09T07:15:14.718Z,103089.69
2023-02-09T07:20:36.427Z,103092.13
2023-02-09T07:26:02.308Z,103097.31
2023-02-09T07:31:24.260Z,103109.44
2023-02-09T07:36:47.771Z,103117.91
2023-02-09T07:42:09.808Z,103109.66
2023-02-09T07:47:31.564Z,103113.78
2023-02-09T07:52:54.620Z,103089.09
2023-02-09T07:58:18.433Z,103101.75
2023-02-09T08:03:43.148Z,103110.81
2023-02-09T08:09:05.397Z,103106.81
2023-02-09T08:14:35.979Z,103113.13
2023-02-09T08:20:08.861Z,103102.72
2023-02-09T08:25:30.617Z,103098.50
2023-02-09T08:30:52.520Z,103092.16
2023-02-09T08:36:14.999Z,103101.81
2023-02-09T08:41:36.702Z,103103.53
2023-02-09T08:46:58.612Z,103105.66
2023-02-09T08:52:20.424Z,103100.47
2023-02-09T08:57:44.671Z,103110.25
2023-02-09T09:03:06.544Z,103100.09
2023-02-09T09:08:29.017Z,103093.22
2023-02-09T09:13:50.884Z,103087.34
2023-02-09T09:19:12.762Z,103102.16
2023-02-09T09:24:40.658Z,103127.22
2023-02-09T09:30:04.704Z,103132.88
2023-02-09T09:35:29.421Z,103128.28
2023-02-09T09:40:51.179Z,103116.06
2023-02-09T09:46:21.009Z,103137.75
2023-02-09T09:51:46.522Z,103122.38
2023-02-09T09:57:29.923Z,103130.69
2023-02-09T10:02:52.312Z,103125.81
2023-02-09T10:08:30.334Z,103136.81
2023-02-09T10:13:55.161Z,103133.94
2023-02-09T10:19:20.845Z,103142.91
2023-02-09T10:24:42.650Z,103138.78
2023-02-09T10:30:28.700Z,103144.75
2023-02-09T10:36:01.296Z,103138.69
2023-02-09T10:41:23.072Z,103148.66
2023-02-09T10:46:47.187Z,103141.97
2023-02-09T10:52:19.744Z,103163.63
2023-02-09T10:57:41.607Z,103173.75
2023-02-09T11:03:03.554Z,103175.53
2023-02-09T11:08:32.194Z,103166.75
2023-02-09T11:13:54.802Z,103156.03
2023-02-09T11:19:26.079Z,103158.34
2023-02-09T11:25:04.963Z,103151.06
2023-02-09T11:30:48.517Z,103148.03
2023-02-09T11:36:22.585Z,103150.28
2023-02-09T11:42:12.703Z,103152.00
2023-02-09T11:48:03.998Z,103152.91
2023-02-09T11:53:40.999Z,103141.22
2023-02-09T11:59:10.072Z,103151.41
2023-02-09T12:04:56.327Z,103150.50
2023-02-09T12:10:30.413Z,103162.53
2023-02-09T12:16:01.323Z,103141.53
2023-02-09T12:21:38.410Z,103133.44
2023-02-09T12:27:00.461Z,103137.69
2023-02-09T12:32:41.281Z,103147.00
2023-02-09T12:39:04.069Z,103140.03
2023-02-09T12:44:26.174Z,103149.72
2023-02-09T12:49:47.937Z,103148.31
2023-02-09T12:55:20.530Z,103143.94
2023-02-09T13:00:51.535Z,103146.16
2023-02-09T13:06:31.810Z,103135.16
2023-02-09T13:12:05.845Z,103129.72
2023-02-09T13:18:18.383Z,103118.75
2023-02-09T13:23:54.794Z,103115.69
2023-02-09T13:29:22.660Z,103120.28
2023-02-09T13:34:59.238Z,103117.88
2023-02-09T13:40:29.682Z,103117.75
2023-02-09T13:45:54.816Z,103113.84
2023-02-09T13:51:19.351Z,103108.00
2023-02-09T13:56:41.938Z,103113.28
2023-02-09T14:02:03.696Z,103104.44
2023-02-09T14:07:32.558Z,103120.03
2023-02-09T14:13:20.632Z,103138.59
2023-02-09T14:18:57.183Z,103144.28
2023-02-09T14:24:27.096Z,103138.00
2023-02-09T14:29:50.388Z,103145.44
2023-02-09T14:35:25.360Z,103136.03
2023-02-09T14:40:47.122Z,103140.75
2023-02-09T14:46:08.929Z,103145.22
2023-02-09T14:51:30.699Z,103141.09
2023-02-09T14:56:54.716Z,103140.38
2023-02-09T15:02:24.041Z,103147.28
2023-02-09T15:07:53.204Z,103154.81
2023-02-09T15:13:16.115Z,103158.97
2023-02-09T15:18:39.409Z,103152.03
2023-02-09T15:24:01.321Z,103166.13
2023-02-09T15:29:23.016Z,103161.59
2023-02-09T15:34:45.481Z,103161.44
2023-02-09T15:40:52.745Z,103167.91
2023-02-09T15:46:33.727Z,103177.97
2023-02-09T15:51:55.531Z,103178.50
2023-02-09T15:57:17.218Z,103193.13
2023-02-09T16:02:38.898Z,103198.53
2023-02-09T16:08:00.679Z,103203.91
2023-02-09T16:13:22.856Z,103212.28
2023-02-09T16:18:45.300Z,103212.28
2023-02-09T16:24:08.230Z,103212.47
2023-02-09T16:29:30.028Z,103230.22
2023-02-09T16:34:52.100Z,103232.69
2023-02-09T16:40:16.924Z,103233.22
2023-02-09T16:45:43.180Z,103242.72
2023-02-09T16:51:13.900Z,103249.84
2023-02-09T16:56:40.914Z,103253.13
2023-02-09T17:02:31.321Z,103262.81
2023-02-09T17:07:59.759Z,103272.34
2023-02-09T17:13:22.078Z,103273.00
2023-02-09T17:18:44.605Z,103284.84
2023-02-09T17:24:13.390Z,103291.31
2023-02-09T17:29:35.267Z,103301.16
2023-02-09T17:34:57.108Z,103300.63
2023-02-09T17:40:22.428Z,103309.78
2023-02-09T17:45:49.270Z,103317.94
2023-02-09T17:51:24.116Z,103328.00
2023-02-09T17:56:46.696Z,103336.66
2023-02-09T18:02:17.222Z,103339.56
2023-02-09T18:07:38.951Z,103339.59
2023-02-09T18:13:00.611Z,103347.63
2023-02-09T18:18:24.312Z,103339.16
2023-02-09T18:23:46.190Z,103342.47
2023-02-09T18:29:07.868Z,103348.38
2023-02-09T18:34:30.281Z,103347.25
2023-02-09T18:39:51.967Z,103358.09
2023-02-09T18:45:18.817Z,103363.22
2023-02-09T18:50:40.560Z,103355.84
2023-02-09T18:56:02.467Z,103373.84
2023-02-09T19:01:24.949Z,103375.84
2023-02-09T19:06:46.734Z,103371.63
2023-02-09T19:12:08.554Z,103378.72
2023-02-09T19:17:30.328Z,103380.53
2023-02-09T19:22:52.880Z,103392.72
2023-02-09T19:28:15.695Z,103381.59
2023-02-09T19:33:37.676Z,103400.19
2023-02-09T19:39:00.754Z,103403.34
2023-02-09T19:44:23.740Z,103402.75
2023-02-09T19:49:46.579Z,103430.06
2023-02-09T19:55:08.738Z,103435.09
2023-02-09T20:00:32.017Z,103437.56
2023-02-09T20:05:53.854Z,103447.53
2023-02-09T20:11:18.053Z,103446.25
2023-02-09T20:16:40.300Z,103439.03
2023-02-09T20:22:02.066Z,103436.38
2023-02-09T20:27:23.889Z,103420.53
2023-02-09T20:32:45.681Z,103433.75
2023-02-09T20:38:07.700Z,103435.72
2023-02-09T20:43:48.244Z,103442.81
2023-02-09T20:49:13.161Z,103451.59
2023-02-09T20:54:35.719Z,103443.00
2023-02-09T21:00:00.876Z,103449.66
2023-02-09T21:05:22.940Z,103460.59
2023-02-09T21:10:44.657Z,103464.88
2023-02-09T21:16:06.494Z,103465.06
2023-02-09T21:21:29.587Z,103468.00
2023-02-09T21:26:51.493Z,103475.38
2023-02-09T21:32:13.342Z,103481.72
2023-02-09T21:37:35.034Z,103486.34
2023-02-09T21:42:56.852Z,103490.25
2023-02-09T21:48:18.664Z,103483.50
2023-02-09T21:53:41.638Z,103482.28
2023-02-09T21:59:03.597Z,103484.44
2023-02-09T22:04:25.994Z,103488.19
2023-02-09T22:09:47.889Z,103498.72
2023-02-09T22:15:10.076Z,103488.53
2023-02-09T22:20:31.808Z,103488.00
2023-02-09T22:26:00.524Z,103489.63
2023-02-09T22:31:22.617Z,103492.72
2023-02-09T22:36:44.358Z,103505.03
2023-02-09T22:42:06.148Z,103502.16
2023-02-09T22:47:27.837Z,103500.34
2023-02-09T22:52:49.544Z,103495.72
2023-02-09T22:58:11.320Z,103500.50
2023-02-09T23:03:36.466Z,103492.75
2023-02-09T23:09:00.786Z,103496.09
2023-02-09T23:14:22.598Z,103499.47
2023-02-09T23:19:45.079Z,103482.69
2023-02-09T23:25:07.341Z,103500.09
2023-02-09T23:30:29.378Z,103501.94
2023-02-09T23:35:51.046Z,103503.72
2023-02-09T23:41:15.816Z,103513.69
2023-02-09T23:46:37.890Z,103504.88
2023-02-09T23:51:59.953Z,103499.03
2023-02-09T23:57:23.706Z,103494.91
